createdAt,value
2023-12-14T00:00:03.769Z,31.35
2023-12-14T00:01:03.934Z,31.32
2023-12-14T00:02:03.962Z,31.32
2023-12-14T00:03:03.995Z,31.34
2023-12-14T00:04:04.083Z,31.33
2023-12-14T00:05:04.170Z,31.33
2023-12-14T00:06:04.269Z,31.34
2023-12-14T00:07:04.278Z,31.34
2023-12-14T00:08:04.412Z,31.34
2023-12-14T00:09:04.434Z,31.33
2023-12-14T00:10:04.477Z,31.33
2023-12-14T00:11:04.553Z,31.31
2023-12-14T00:12:04.663Z,31.32
2023-12-14T00:13:04.689Z,31.32
2023-12-14T00:14:04.758Z,31.30
2023-12-14T00:15:04.835Z,31.34
2023-12-14T00:16:04.982Z,31.33
2023-12-14T00:17:05.038Z,31.30
2023-12-14T00:18:05.045Z,31.33
2023-12-14T00:19:05.129Z,31.33
2023-12-14T00:20:05.222Z,31.32
2023-12-14T00:21:05.244Z,31.32
2023-12-14T00:22:05.298Z,31.31
2023-12-14T00:23:05.385Z,31.32
2023-12-14T00:24:05.424Z,31.31
2023-12-14T00:25:05.492Z,31.31
2023-12-14T00:26:05.644Z,31.28
2023-12-14T00:27:05.631Z,31.29
2023-12-14T00:28:05.688Z,31.30
2023-12-14T00:29:05.865Z,31.32
2023-12-14T00:30:05.800Z,31.30
2023-12-14T00:31:05.912Z,31.27
2023-12-14T00:32:05.937Z,31.28
2023-12-14T00:33:06.072Z,31.31
2023-12-14T00:34:06.094Z,31.31
2023-12-14T00:35:06.219Z,31.30
2023-12-14T00:36:06.169Z,31.29
2023-12-14T00:37:06.275Z,31.29
2023-12-14T00:38:06.412Z,31.29
2023-12-14T00:39:06.433Z,31.27
2023-12-14T00:40:06.456Z,31.29
2023-12-14T00:41:06.577Z,31.26
2023-12-14T00:42:06.543Z,31.26
2023-12-14T00:43:06.635Z,31.26
2023-12-14T00:44:06.756Z,31.27
2023-12-14T00:45:06.778Z,31.28
2023-12-14T00:46:06.872Z,31.29
2023-12-14T00:47:06.945Z,31.27
2023-12-14T00:48:07.017Z,31.28
2023-12-14T00:49:07.096Z,31.28
2023-12-14T00:50:07.270Z,31.27
2023-12-14T00:51:07.182Z,31.25
2023-12-14T00:52:07.265Z,31.29
2023-12-14T00:53:07.424Z,31.27
2023-12-14T00:54:07.416Z,31.28
2023-12-14T00:55:07.492Z,31.28
2023-12-14T00:56:07.613Z,31.29
2023-12-14T00:57:07.608Z,31.27
2023-12-14T00:58:07.714Z,31.25
2023-12-14T00:59:07.779Z,31.25
2023-12-14T01:00:07.816Z,31.24
2023-12-14T01:01:07.899Z,31.26
2023-12-14T01:02:07.928Z,31.26
2023-12-14T01:03:07.993Z,31.28
2023-12-14T01:04:08.119Z,31.26
2023-12-14T01:05:08.219Z,31.24
2023-12-14T01:06:08.212Z,31.23
2023-12-14T01:07:08.264Z,31.24
2023-12-14T01:08:08.343Z,31.26
2023-12-14T01:09:08.406Z,31.26
2023-12-14T01:10:08.450Z,31.26
2023-12-14T01:11:08.671Z,31.23
2023-12-14T01:12:08.588Z,31.22
2023-12-14T01:13:08.625Z,31.23
2023-12-14T01:14:08.744Z,31.22
2023-12-14T01:15:08.772Z,31.22
2023-12-14T01:16:08.859Z,31.22
2023-12-14T01:17:08.920Z,31.21
2023-12-14T01:18:08.961Z,31.22
2023-12-14T01:19:09.154Z,31.24
2023-12-14T01:20:09.086Z,31.22
2023-12-14T01:21:09.126Z,31.22
2023-12-14T01:22:09.173Z,31.22
2023-12-14T01:23:09.256Z,31.24
2023-12-14T01:24:09.251Z,31.24
2023-12-14T01:25:09.322Z,31.23
2023-12-14T01:26:09.476Z,31.22
2023-12-14T01:27:09.375Z,31.22
2023-12-14T01:28:09.444Z,31.19
2023-12-14T01:29:09.569Z,31.22
2023-12-14T01:30:09.577Z,31.20
2023-12-14T01:31:09.623Z,31.22
2023-12-14T01:32:09.799Z,31.20
2023-12-14T01:33:09.778Z,31.23
2023-12-14T01:34:09.808Z,31.19
2023-12-14T01:35:09.865Z,31.20
2023-12-14T01:36:09.844Z,31.20
2023-12-14T01:37:09.880Z,31.20
2023-12-14T01:38:10.045Z,31.23
2023-12-14T01:39:10.029Z,31.23
2023-12-14T01:40:10.049Z,31.19
2023-12-14T01:41:10.222Z,31.24
2023-12-14T01:42:10.154Z,31.22
2023-12-14T01:43:10.222Z,31.20
2023-12-14T01:44:10.285Z,31.19
2023-12-14T01:45:10.260Z,31.20
2023-12-14T01:46:10.292Z,31.20
2023-12-14T01:47:10.395Z,31.21
2023-12-14T01:48:10.512Z,31.20
2023-12-14T01:49:10.462Z,31.16
2023-12-14T01:50:10.536Z,31.21
2023-12-14T01:51:10.586Z,31.18
2023-12-14T01:52:10.585Z,31.20
2023-12-14T01:53:10.687Z,31.17
2023-12-14T01:54:10.693Z,31.19
2023-12-14T01:55:10.742Z,31.19
2023-12-14T01:56:10.852Z,31.18
2023-12-14T01:57:10.876Z,31.18
2023-12-14T01:58:10.956Z,31.17
2023-12-14T01:59:11.089Z,31.16
2023-12-14T02:00:11.044Z,31.19
2023-12-14T02:01:11.118Z,31.20
2023-12-14T02:02:11.278Z,31.21
2023-12-14T02:03:11.161Z,31.17
2023-12-14T02:04:11.386Z,31.21
2023-12-14T02:05:11.337Z,31.20
2023-12-14T02:06:11.321Z,31.20
2023-12-14T02:07:11.270Z,31.18
2023-12-14T02:08:11.420Z,31.16
2023-12-14T02:09:11.388Z,31.18
2023-12-14T02:10:11.440Z,31.21
2023-12-14T02:11:11.499Z,31.19
2023-12-14T02:12:11.430Z,31.18
2023-12-14T02:13:11.490Z,31.21
2023-12-14T02:14:11.726Z,31.18
2023-12-14T02:15:11.665Z,31.18
2023-12-14T02:16:11.601Z,31.17
2023-12-14T02:17:11.663Z,31.16
2023-12-14T02:18:11.706Z,31.14
2023-12-14T02:19:11.725Z,31.19
2023-12-14T02:20:11.817Z,31.18
2023-12-14T02:21:11.652Z,31.17
2023-12-14T02:22:11.661Z,31.16
2023-12-14T02:23:11.687Z,31.16
2023-12-14T02:24:11.738Z,31.16
2023-12-14T02:25:11.731Z,31.16
2023-12-14T02:26:11.836Z,31.17
2023-12-14T02:27:11.726Z,31.15
2023-12-14T02:28:11.804Z,31.14
2023-12-14T02:29:11.887Z,31.14
2023-12-14T02:30:11.867Z,31.15
2023-12-14T02:31:11.855Z,31.15
2023-12-14T02:32:11.914Z,31.14
2023-12-14T02:33:11.897Z,31.15
2023-12-14T02:34:11.978Z,31.12
2023-12-14T02:35:11.966Z,31.12
2023-12-14T02:36:11.908Z,31.15
2023-12-14T02:37:11.919Z,31.15
2023-12-14T02:38:12.013Z,31.11
2023-12-14T02:39:11.932Z,31.12
2023-12-14T02:40:12.044Z,31.14
2023-12-14T02:41:12.012Z,31.14
2023-12-14T02:42:11.973Z,31.14
2023-12-14T02:43:11.963Z,31.14
2023-12-14T02:44:12.030Z,31.15
2023-12-14T02:45:11.995Z,31.16
2023-12-14T02:46:12.015Z,31.12
2023-12-14T02:47:12.030Z,31.12
2023-12-14T02:48:12.081Z,31.14
2023-12-14T02:49:12.127Z,31.15
2023-12-14T02:50:12.081Z,31.16
2023-12-14T02:51:12.057Z,31.12
2023-12-14T02:52:12.068Z,31.15
2023-12-14T02:53:12.085Z,31.15
2023-12-14T02:54:12.087Z,31.11
2023-12-14T02:55:12.123Z,31.15
2023-12-14T02:56:12.210Z,31.11
2023-12-14T02:57:12.088Z,31.13
2023-12-14T02:58:12.105Z,31.12
2023-12-14T02:59:12.126Z,31.14
2023-12-14T03:00:12.099Z,31.11
2023-12-14T03:01:12.158Z,31.10
2023-12-14T03:02:12.150Z,31.12
2023-12-14T03:03:12.120Z,31.13
2023-12-14T03:04:12.140Z,31.11
2023-12-14T03:05:12.164Z,31.13
2023-12-14T03:06:12.210Z,31.11
2023-12-14T03:07:12.079Z,31.13
2023-12-14T03:08:12.168Z,31.14
2023-12-14T03:09:12.094Z,31.14
2023-12-14T03:10:12.101Z,31.14
2023-12-14T03:11:12.230Z,31.12
2023-12-14T03:12:12.142Z,31.11
2023-12-14T03:13:12.128Z,31.13
2023-12-14T03:14:12.182Z,31.13
2023-12-14T03:15:12.127Z,31.12
2023-12-14T03:16:12.160Z,31.11
2023-12-14T03:17:12.186Z,31.10
2023-12-14T03:18:12.198Z,31.12
2023-12-14T03:19:12.262Z,31.12
2023-12-14T03:20:12.301Z,31.10
2023-12-14T03:21:12.179Z,31.10
2023-12-14T03:22:12.162Z,31.11
2023-12-14T03:23:12.208Z,31.10
2023-12-14T03:24:12.215Z,31.12
2023-12-14T03:25:12.163Z,31.08
2023-12-14T03:26:12.270Z,31.10
2023-12-14T03:27:12.179Z,31.11
2023-12-14T03:28:12.231Z,31.11
2023-12-14T03:29:12.282Z,31.11
2023-12-14T03:30:12.231Z,31.11
2023-12-14T03:31:12.210Z,31.08
2023-12-14T03:32:12.356Z,31.10
2023-12-14T03:33:12.299Z,31.08
2023-12-14T03:34:12.246Z,31.11
2023-12-14T03:35:12.307Z,31.10
2023-12-14T03:36:12.217Z,31.08
2023-12-14T03:37:12.224Z,31.09
2023-12-14T03:38:12.247Z,31.09
2023-12-14T03:39:12.246Z,31.09
2023-12-14T03:40:12.273Z,31.10
2023-12-14T03:41:12.362Z,31.07
2023-12-14T03:42:12.313Z,31.10
2023-12-14T03:43:12.363Z,31.11
2023-12-14T03:44:12.457Z,31.09
2023-12-14T03:45:12.484Z,31.08
2023-12-14T03:46:12.543Z,31.09
2023-12-14T03:47:12.768Z,31.09
2023-12-14T03:48:12.773Z,31.10
2023-12-14T03:49:12.809Z,31.06
2023-12-14T03:50:12.969Z,31.06
2023-12-14T03:51:12.861Z,31.06
2023-12-14T03:52:12.908Z,31.08
2023-12-14T03:53:13.019Z,31.08
2023-12-14T03:54:13.091Z,31.08
2023-12-14T03:55:13.126Z,31.09
2023-12-14T03:56:13.167Z,31.06
2023-12-14T03:57:13.221Z,31.07
2023-12-14T03:58:13.311Z,31.08
2023-12-14T03:59:13.288Z,31.09
2023-12-14T04:00:13.303Z,31.11
2023-12-14T04:01:13.394Z,31.08
2023-12-14T04:02:13.514Z,31.05
2023-12-14T04:03:13.506Z,31.07
2023-12-14T04:04:13.493Z,31.07
2023-12-14T04:05:13.658Z,31.08
2023-12-14T04:06:13.725Z,31.08
2023-12-14T04:07:13.773Z,31.10
2023-12-14T04:08:13.749Z,31.08
2023-12-14T04:09:13.800Z,31.09
2023-12-14T04:10:13.841Z,31.07
2023-12-14T04:11:13.976Z,31.04
2023-12-14T04:12:14.015Z,31.06
2023-12-14T04:13:13.975Z,31.07
2023-12-14T04:14:14.276Z,31.08
2023-12-14T04:15:14.150Z,31.07
2023-12-14T04:16:14.153Z,31.05
2023-12-14T04:17:14.350Z,31.08
2023-12-14T04:18:14.389Z,31.07
2023-12-14T04:19:14.348Z,31.07
2023-12-14T04:20:14.580Z,31.04
2023-12-14T04:21:14.481Z,31.04
2023-12-14T04:22:14.526Z,31.04
2023-12-14T04:23:14.652Z,31.05
2023-12-14T04:24:14.620Z,31.05
2023-12-14T04:25:14.724Z,31.05
2023-12-14T04:26:14.891Z,31.07
2023-12-14T04:27:14.824Z,31.04
2023-12-14T04:28:14.883Z,31.03
2023-12-14T04:29:15.012Z,31.06
2023-12-14T04:30:14.988Z,31.04
2023-12-14T04:31:15.025Z,31.04
2023-12-14T04:32:22.242Z,31.09
2023-12-14T04:33:22.314Z,31.06
2023-12-14T04:34:22.377Z,31.07
2023-12-14T04:35:22.260Z,31.07
2023-12-14T04:36:22.259Z,31.08
2023-12-14T04:37:22.273Z,31.04
2023-12-14T04:38:22.277Z,31.06
2023-12-14T04:39:22.298Z,31.05
2023-12-14T04:40:22.311Z,31.03
2023-12-14T04:41:22.341Z,31.06
2023-12-14T04:42:22.228Z,31.05
2023-12-14T04:43:22.264Z,31.06
2023-12-14T04:44:22.256Z,31.05
2023-12-14T04:45:22.266Z,31.07
2023-12-14T04:46:22.266Z,31.05
2023-12-14T04:47:22.297Z,31.05
2023-12-14T04:48:22.337Z,31.05
2023-12-14T04:49:22.286Z,31.05
2023-12-14T04:50:22.246Z,31.07
2023-12-14T04:51:22.259Z,31.06
2023-12-14T04:52:22.243Z,31.05
2023-12-14T04:53:22.362Z,31.07
2023-12-14T04:54:22.385Z,31.04
2023-12-14T04:55:22.521Z,31.05
2023-12-14T04:56:22.615Z,31.06
2023-12-14T04:57:23.409Z,31.05
2023-12-14T04:58:22.621Z,31.02
2023-12-14T04:59:22.740Z,31.04
2023-12-14T05:00:22.758Z,31.05
2023-12-14T05:01:22.848Z,31.03
2023-12-14T05:02:22.972Z,31.03
2023-12-14T05:03:22.987Z,31.02
2023-12-14T05:04:23.018Z,30.96
2023-12-14T05:05:23.084Z,30.93
2023-12-14T05:06:23.212Z,30.88
2023-12-14T05:07:23.221Z,30.77
2023-12-14T05:08:23.296Z,30.78
2023-12-14T05:09:23.410Z,30.75
2023-12-14T05:10:23.417Z,30.65
2023-12-14T05:11:23.530Z,30.59
2023-12-14T05:12:23.538Z,30.55
2023-12-14T05:13:23.576Z,30.51
2023-12-14T05:14:23.664Z,30.45
2023-12-14T05:15:23.717Z,30.40
2023-12-14T05:16:23.801Z,30.36
2023-12-14T05:17:23.940Z,30.31
2023-12-14T05:18:23.992Z,30.30
2023-12-14T05:19:23.957Z,30.25
2023-12-14T05:20:24.077Z,30.18
2023-12-14T05:21:24.101Z,30.17
2023-12-14T05:22:24.155Z,30.11
2023-12-14T05:23:24.301Z,30.10
2023-12-14T05:24:24.331Z,30.03
2023-12-14T05:25:24.345Z,30.00
2023-12-14T05:26:24.459Z,29.98
2023-12-14T05:27:24.515Z,29.94
2023-12-14T05:28:24.564Z,29.93
2023-12-14T05:29:24.622Z,29.89
2023-12-14T05:30:24.730Z,29.84
2023-12-14T05:31:24.793Z,29.86
2023-12-14T05:32:24.881Z,29.82
2023-12-14T05:33:24.987Z,29.78
2023-12-14T05:34:24.984Z,29.85
2023-12-14T05:35:25.025Z,29.83
2023-12-14T05:36:25.096Z,29.85
2023-12-14T05:37:25.152Z,29.85
2023-12-14T05:38:25.262Z,29.87
2023-12-14T05:39:25.295Z,29.90
2023-12-14T05:40:25.370Z,29.86
2023-12-14T05:41:25.390Z,29.91
2023-12-14T05:42:25.496Z,29.90
2023-12-14T05:43:25.526Z,29.88
2023-12-14T05:44:25.597Z,29.92
2023-12-14T05:45:25.706Z,29.91
2023-12-14T05:46:25.817Z,29.93
2023-12-14T05:47:25.819Z,29.91
2023-12-14T05:48:25.935Z,29.95
2023-12-14T05:49:25.941Z,29.95
2023-12-14T05:50:26.096Z,29.96
2023-12-14T05:51:26.095Z,29.99
2023-12-14T05:52:26.111Z,29.95
2023-12-14T05:53:26.197Z,29.96
2023-12-14T05:54:26.273Z,29.99
2023-12-14T05:55:26.348Z,29.99
2023-12-14T05:56:26.414Z,30.02
2023-12-14T05:57:26.514Z,30.03
2023-12-14T05:58:26.526Z,30.04
2023-12-14T05:59:26.636Z,30.06
2023-12-14T06:00:26.685Z,30.06
2023-12-14T06:01:26.904Z,30.05
2023-12-14T06:02:26.898Z,30.04
2023-12-14T06:03:26.918Z,30.08
2023-12-14T06:04:26.952Z,30.10
2023-12-14T06:05:27.098Z,30.09
2023-12-14T06:06:27.113Z,30.12
2023-12-14T06:07:27.193Z,30.10
2023-12-14T06:08:27.216Z,30.14
2023-12-14T06:09:27.301Z,30.12
2023-12-14T06:10:27.350Z,30.15
2023-12-14T06:11:27.502Z,30.14
2023-12-14T06:12:27.515Z,30.15
2023-12-14T06:13:27.581Z,30.15
2023-12-14T06:14:27.670Z,30.15
2023-12-14T06:15:27.760Z,30.13
2023-12-14T06:16:27.817Z,30.12
2023-12-14T06:17:29.489Z,30.12
2023-12-14T06:18:27.979Z,30.13
2023-12-14T06:19:27.913Z,30.12
2023-12-14T06:20:27.912Z,30.11
2023-12-14T06:21:27.889Z,30.10
2023-12-14T06:22:27.896Z,30.09
2023-12-14T06:23:27.910Z,30.12
2023-12-14T06:24:27.907Z,30.10
2023-12-14T06:25:27.863Z,30.08
2023-12-14T06:26:27.859Z,30.08
2023-12-14T06:27:27.868Z,30.10
2023-12-14T06:28:27.873Z,30.09
2023-12-14T06:29:27.874Z,30.11
2023-12-14T06:30:27.898Z,30.10
2023-12-14T06:31:27.893Z,30.11
2023-12-14T06:32:27.889Z,30.09
2023-12-14T06:33:28.013Z,30.11
2023-12-14T06:34:27.871Z,30.13
2023-12-14T06:35:27.881Z,30.35
2023-12-14T06:36:27.951Z,30.88
2023-12-14T06:37:27.897Z,31.03
2023-12-14T06:38:27.907Z,31.13
2023-12-14T06:39:27.922Z,31.29
2023-12-14T06:40:27.893Z,31.55
2023-12-14T06:41:27.861Z,31.49
2023-12-14T06:42:27.863Z,31.56
2023-12-14T06:43:27.954Z,31.62
2023-12-14T06:44:27.894Z,31.93
2023-12-14T06:45:27.958Z,31.94
2023-12-14T06:46:27.924Z,32.32
2023-12-14T06:47:28.105Z,32.36
2023-12-14T06:48:28.393Z,32.82
2023-12-14T06:49:27.919Z,32.66
2023-12-14T06:50:27.878Z,32.74
2023-12-14T06:51:27.901Z,32.65
2023-12-14T06:52:28.084Z,32.87
2023-12-14T06:53:27.881Z,32.77
2023-12-14T06:54:28.168Z,32.86
2023-12-14T06:55:27.915Z,32.96
2023-12-14T06:56:28.418Z,32.97
2023-12-14T06:57:28.190Z,33.08
2023-12-14T06:58:28.459Z,33.28
2023-12-14T06:59:28.075Z,31.95
2023-12-14T07:00:27.915Z,30.46
2023-12-14T07:01:27.939Z,30.34
2023-12-14T07:02:30.385Z,30.35
2023-12-14T07:03:28.513Z,30.63
2023-12-14T07:04:28.020Z,30.97
2023-12-14T07:05:28.149Z,31.35
2023-12-14T07:06:34.954Z,31.80
2023-12-14T07:07:28.049Z,31.92
2023-12-14T07:08:28.469Z,31.92
2023-12-14T07:09:28.463Z,31.87
2023-12-14T07:10:28.007Z,31.89
2023-12-14T07:11:28.181Z,31.92
2023-12-14T07:12:30.916Z,31.99
2023-12-14T07:13:28.014Z,31.99
2023-12-14T07:14:31.960Z,32.03
2023-12-14T07:15:28.135Z,32.05
2023-12-14T07:16:31.893Z,32.16
2023-12-14T07:17:28.188Z,32.20
2023-12-14T07:18:28.171Z,32.15
2023-12-14T07:19:28.114Z,32.12
2023-12-14T07:20:28.086Z,32.17
2023-12-14T07:21:28.057Z,32.23
2023-12-14T07:22:28.048Z,32.18
2023-12-14T07:23:28.112Z,32.20
2023-12-14T07:24:29.641Z,32.16
2023-12-14T07:25:28.479Z,32.25
2023-12-14T07:26:28.074Z,32.33
2023-12-14T07:27:28.029Z,32.46
2023-12-14T07:28:28.041Z,32.54
2023-12-14T07:29:28.047Z,32.47
2023-12-14T07:30:29.137Z,32.60
2023-12-14T07:31:28.989Z,32.58
2023-12-14T07:32:28.112Z,32.50
2023-12-14T07:33:28.164Z,32.40
2023-12-14T07:34:28.146Z,32.36
2023-12-14T07:35:28.113Z,32.34
2023-12-14T07:36:28.432Z,32.29
2023-12-14T07:37:28.109Z,32.25
2023-12-14T07:38:28.110Z,32.27
2023-12-14T07:39:28.047Z,32.31
2023-12-14T07:40:28.056Z,32.22
2023-12-14T07:41:28.476Z,32.16
2023-12-14T07:42:31.448Z,32.16
2023-12-14T07:43:28.610Z,32.18
2023-12-14T07:44:28.101Z,32.19
2023-12-14T07:45:28.212Z,32.34
2023-12-14T07:46:28.096Z,32.40
2023-12-14T07:47:28.156Z,32.00
2023-12-14T07:48:31.476Z,31.98
2023-12-14T07:49:28.086Z,31.30
2023-12-14T07:50:28.125Z,31.21
2023-12-14T07:51:37.906Z,30.96
2023-12-14T07:52:28.084Z,31.17
2023-12-14T07:53:28.532Z,31.23
2023-12-14T07:54:28.126Z,31.47
2023-12-14T07:55:29.336Z,31.66
2023-12-14T07:56:29.014Z,31.87
2023-12-14T07:57:29.041Z,31.87
2023-12-14T07:58:28.105Z,31.79
2023-12-14T07:59:28.184Z,31.91
2023-12-14T08:00:28.187Z,32.05
2023-12-14T08:01:28.483Z,32.07
2023-12-14T08:02:29.059Z,32.12
2023-12-14T08:03:28.126Z,32.21
2023-12-14T08:04:28.196Z,32.23
2023-12-14T08:05:28.238Z,32.33
2023-12-14T08:06:28.210Z,32.25
2023-12-14T08:07:28.175Z,32.19
2023-12-14T08:08:28.197Z,32.27
2023-12-14T08:09:28.285Z,32.31
2023-12-14T08:10:28.134Z,32.36
2023-12-14T08:11:28.500Z,32.36
2023-12-14T08:12:28.515Z,32.37
2023-12-14T08:13:28.147Z,32.31
2023-12-14T08:14:28.129Z,32.34
2023-12-14T08:15:28.153Z,32.37
2023-12-14T08:16:28.158Z,32.38
2023-12-14T08:17:28.492Z,32.37
2023-12-14T08:18:29.213Z,32.56
2023-12-14T08:19:28.113Z,32.47
2023-12-14T08:20:28.515Z,32.53
2023-12-14T08:21:28.102Z,32.31
2023-12-14T08:22:28.132Z,32.30
2023-12-14T08:23:28.178Z,32.31
2023-12-14T08:24:28.084Z,32.23
2023-12-14T08:25:28.519Z,32.25
2023-12-14T08:26:28.153Z,32.52
2023-12-14T08:27:28.150Z,32.73
2023-12-14T08:28:28.118Z,32.71
2023-12-14T08:29:51.069Z,32.69
2023-12-14T08:30:28.608Z,32.96
2023-12-14T08:31:28.646Z,32.59
2023-12-14T08:32:28.574Z,32.45
2023-12-14T08:33:28.382Z,32.32
2023-12-14T08:34:28.164Z,32.35
2023-12-14T08:35:28.182Z,32.33
2023-12-14T08:36:28.175Z,32.22
2023-12-14T08:37:29.988Z,32.18
2023-12-14T08:38:28.127Z,32.08
2023-12-14T08:39:28.129Z,32.03
2023-12-14T08:40:28.159Z,31.96
2023-12-14T08:41:28.166Z,31.91
2023-12-14T08:42:28.574Z,31.82
2023-12-14T08:43:28.165Z,31.77
2023-12-14T08:44:29.296Z,31.81
2023-12-14T08:45:28.485Z,31.70
2023-12-14T08:46:28.194Z,31.67
2023-12-14T08:47:28.155Z,31.63
2023-12-14T08:48:28.218Z,31.56
2023-12-14T08:49:28.153Z,31.55
2023-12-14T08:50:28.895Z,31.44
2023-12-14T08:51:28.512Z,31.44
2023-12-14T08:52:28.481Z,31.42
2023-12-14T08:53:28.192Z,31.33
2023-12-14T08:54:28.460Z,31.32
2023-12-14T08:55:28.629Z,31.25
2023-12-14T08:56:28.778Z,31.21
2023-12-14T08:57:28.613Z,31.20
2023-12-14T08:58:28.257Z,31.15
2023-12-14T08:59:28.325Z,31.14
2023-12-14T09:00:28.521Z,31.10
2023-12-14T09:01:28.386Z,31.08
2023-12-14T09:02:28.556Z,31.06
2023-12-14T09:03:28.468Z,31.03
2023-12-14T09:04:28.438Z,30.94
2023-12-14T09:05:28.622Z,30.93
2023-12-14T09:06:28.540Z,30.92
2023-12-14T09:07:28.510Z,30.89
2023-12-14T09:08:28.538Z,30.89
2023-12-14T09:09:28.539Z,30.89
2023-12-14T09:10:29.018Z,30.92
2023-12-14T09:11:28.658Z,30.95
2023-12-14T09:12:28.657Z,30.91
2023-12-14T09:13:28.673Z,30.90
2023-12-14T09:14:28.751Z,30.91
2023-12-14T09:15:30.410Z,30.93
2023-12-14T09:16:28.781Z,30.93
2023-12-14T09:17:28.973Z,30.92
2023-12-14T09:18:29.060Z,30.92
2023-12-14T09:19:28.902Z,30.95
2023-12-14T09:20:29.046Z,30.97
2023-12-14T09:21:37.809Z,30.97
2023-12-14T09:22:29.940Z,31.03
2023-12-14T09:23:29.157Z,31.02
2023-12-14T09:24:28.998Z,31.01
2023-12-14T09:25:28.911Z,31.04
2023-12-14T09:26:29.218Z,31.04
2023-12-14T09:27:28.963Z,31.06
2023-12-14T09:28:29.018Z,31.06
2023-12-14T09:29:29.008Z,31.06
2023-12-14T09:30:29.025Z,31.08
2023-12-14T09:31:29.043Z,31.10
2023-12-14T09:32:29.137Z,31.13
2023-12-14T09:33:29.064Z,31.09
2023-12-14T09:34:29.001Z,31.12
2023-12-14T09:35:29.177Z,31.13
2023-12-14T09:36:28.919Z,31.12
2023-12-14T09:37:28.970Z,31.15
2023-12-14T09:38:29.033Z,31.16
2023-12-14T09:39:29.107Z,31.14
2023-12-14T09:40:29.069Z,31.14
2023-12-14T09:41:29.156Z,31.13
2023-12-14T09:42:29.517Z,31.14
2023-12-14T09:43:29.917Z,31.15
2023-12-14T09:44:29.309Z,31.14
2023-12-14T09:45:29.353Z,31.13
2023-12-14T09:46:29.410Z,31.16
2023-12-14T09:47:29.456Z,31.16
2023-12-14T09:48:29.529Z,31.16
2023-12-14T09:49:29.526Z,31.16
2023-12-14T09:50:30.047Z,31.16
2023-12-14T09:51:29.650Z,31.20
2023-12-14T09:52:29.660Z,31.16
2023-12-14T09:53:29.688Z,31.16
2023-12-14T09:55:30.552Z,31.20
2023-12-14T09:56:30.450Z,31.19
2023-12-14T09:57:30.464Z,31.19
2023-12-14T09:58:30.626Z,31.20
2023-12-14T09:59:30.558Z,31.18
2023-12-14T10:00:30.581Z,31.14
2023-12-14T10:01:30.610Z,31.15
2023-12-14T10:02:30.467Z,31.14
2023-12-14T10:03:30.449Z,31.11
2023-12-14T10:04:30.412Z,31.09
2023-12-14T10:05:31.103Z,31.09
2023-12-14T10:06:30.653Z,31.09
2023-12-14T10:07:30.416Z,31.07
2023-12-14T10:08:30.454Z,31.07
2023-12-14T10:09:30.564Z,31.04
2023-12-14T10:10:30.440Z,31.04
2023-12-14T10:11:30.428Z,31.06
2023-12-14T10:12:30.611Z,31.10
2023-12-14T10:13:30.442Z,31.09
2023-12-14T10:14:30.474Z,31.10
2023-12-14T10:15:30.445Z,31.10
2023-12-14T10:16:30.578Z,31.11
2023-12-14T10:17:30.657Z,31.11
2023-12-14T10:18:33.840Z,31.12
2023-12-14T10:19:30.867Z,31.12
2023-12-14T10:20:30.590Z,31.10
2023-12-14T10:21:31.280Z,31.14
2023-12-14T10:22:30.711Z,31.13
2023-12-14T10:23:31.185Z,31.12
2023-12-14T10:24:30.658Z,31.13
2023-12-14T10:25:30.451Z,31.14
2023-12-14T10:26:30.569Z,31.12
2023-12-14T10:27:30.481Z,31.15
2023-12-14T10:28:30.492Z,31.14
2023-12-14T10:29:30.553Z,31.16
2023-12-14T10:30:30.496Z,31.14
2023-12-14T10:31:30.455Z,31.16
2023-12-14T10:32:30.627Z,31.15
2023-12-14T10:33:30.546Z,31.14
2023-12-14T10:34:30.611Z,31.16
2023-12-14T10:35:30.482Z,31.15
2023-12-14T10:36:30.472Z,31.15
2023-12-14T10:37:30.515Z,31.19
2023-12-14T10:38:30.471Z,31.16
2023-12-14T10:39:31.586Z,31.17
2023-12-14T10:40:30.491Z,31.16
2023-12-14T10:41:30.526Z,31.18
2023-12-14T10:42:30.723Z,31.16
2023-12-14T10:43:47.681Z,31.15
2023-12-14T10:44:48.772Z,31.16
2023-12-14T10:45:31.597Z,31.18
2023-12-14T10:46:30.481Z,31.18
2023-12-14T10:47:30.522Z,31.15
2023-12-14T10:48:30.563Z,31.16
2023-12-14T10:49:30.528Z,31.19
2023-12-14T10:50:30.617Z,31.16
2023-12-14T10:51:30.503Z,31.19
2023-12-14T10:52:30.533Z,31.15
2023-12-14T10:53:30.502Z,31.18
2023-12-14T10:54:30.528Z,31.19
2023-12-14T10:55:30.584Z,31.22
2023-12-14T10:56:30.512Z,31.19
2023-12-14T10:57:30.568Z,31.18
2023-12-14T10:58:30.537Z,31.22
2023-12-14T10:59:30.562Z,31.20
2023-12-14T11:00:30.498Z,31.20
2023-12-14T11:01:30.577Z,31.20
2023-12-14T11:02:30.533Z,31.19
2023-12-14T11:03:30.633Z,31.19
2023-12-14T11:04:30.556Z,31.18
2023-12-14T11:05:31.066Z,31.20
2023-12-14T11:06:30.714Z,31.20
2023-12-14T11:07:30.524Z,31.20
2023-12-14T11:08:30.522Z,31.16
2023-12-14T11:09:30.485Z,31.18
2023-12-14T11:10:30.553Z,31.16
2023-12-14T11:11:30.540Z,31.17
2023-12-14T11:12:30.530Z,31.16
2023-12-14T11:13:30.580Z,31.17
2023-12-14T11:14:30.569Z,31.16
2023-12-14T11:15:30.582Z,31.18
2023-12-14T11:16:30.608Z,31.19
2023-12-14T11:17:30.810Z,31.17
2023-12-14T11:18:31.150Z,31.19
2023-12-14T11:19:30.787Z,31.19
2023-12-14T11:20:30.850Z,31.19
2023-12-14T11:21:30.850Z,31.18
2023-12-14T11:22:30.845Z,31.21
2023-12-14T11:23:30.931Z,31.20
2023-12-14T11:24:31.144Z,31.21
2023-12-14T11:25:38.843Z,31.21
2023-12-14T11:26:32.030Z,31.22
2023-12-14T11:27:30.979Z,31.21
2023-12-14T11:28:31.820Z,31.23
2023-12-14T11:29:31.028Z,31.22
2023-12-14T11:30:40.444Z,31.21
2023-12-14T11:31:32.066Z,31.22
2023-12-14T11:32:31.056Z,31.22
2023-12-14T11:33:31.095Z,31.23
2023-12-14T11:34:30.976Z,31.21
2023-12-14T11:35:31.052Z,31.22
2023-12-14T11:36:30.974Z,31.23
2023-12-14T11:37:30.972Z,31.23
2023-12-14T11:38:30.980Z,31.22
2023-12-14T11:39:31.075Z,31.26
2023-12-14T11:40:30.968Z,31.24
2023-12-14T11:41:30.972Z,31.22
2023-12-14T11:42:30.970Z,31.22
2023-12-14T11:43:30.982Z,31.23
2023-12-14T11:44:31.402Z,31.22
2023-12-14T11:45:31.011Z,31.22
2023-12-14T11:46:31.033Z,31.24
2023-12-14T11:47:31.132Z,31.25
2023-12-14T11:48:31.186Z,31.24
2023-12-14T11:49:31.217Z,31.23
2023-12-14T11:50:31.374Z,31.24
2023-12-14T11:51:31.304Z,31.22
2023-12-14T11:52:31.306Z,31.24
2023-12-14T11:53:31.383Z,31.22
2023-12-14T11:54:31.630Z,31.23
2023-12-14T11:55:31.453Z,31.23
2023-12-14T11:56:31.702Z,31.23
2023-12-14T11:57:32.085Z,31.24
2023-12-14T11:58:31.613Z,31.22
2023-12-14T11:59:32.114Z,31.22
2023-12-14T12:00:31.837Z,31.22
2023-12-14T12:01:31.770Z,31.26
2023-12-14T12:02:31.870Z,31.25
2023-12-14T12:03:31.827Z,31.22
2023-12-14T12:04:32.119Z,31.25
2023-12-14T12:05:32.187Z,31.23
2023-12-14T12:06:32.133Z,31.21
2023-12-14T12:07:32.063Z,31.22
2023-12-14T12:08:32.169Z,31.25
2023-12-14T12:09:32.179Z,31.22
2023-12-14T12:10:32.259Z,31.25
2023-12-14T12:11:32.547Z,31.24
2023-12-14T12:12:32.312Z,31.24
2023-12-14T12:13:32.371Z,31.23
2023-12-14T12:14:32.443Z,31.24
2023-12-14T12:15:32.546Z,31.23
2023-12-14T12:16:32.574Z,31.24
2023-12-14T12:17:32.652Z,31.23
2023-12-14T12:18:32.734Z,31.21
2023-12-14T12:19:33.153Z,31.18
2023-12-14T12:20:32.738Z,31.19
2023-12-14T12:21:32.837Z,31.21
2023-12-14T12:22:33.091Z,31.18
2023-12-14T12:23:32.982Z,31.20
2023-12-14T12:24:34.588Z,31.20
2023-12-14T12:25:33.017Z,31.19
2023-12-14T12:26:33.085Z,31.20
2023-12-14T12:27:33.466Z,31.19
2023-12-14T12:28:33.178Z,31.21
2023-12-14T12:29:33.242Z,31.20
2023-12-14T12:30:33.358Z,31.21
2023-12-14T12:31:33.333Z,31.23
2023-12-14T12:32:33.516Z,31.23
2023-12-14T12:33:33.503Z,31.22
2023-12-14T12:34:33.545Z,31.22
2023-12-14T12:35:33.544Z,31.22
2023-12-14T12:36:34.021Z,31.23
2023-12-14T12:37:33.927Z,31.22
2023-12-14T12:38:33.713Z,31.21
2023-12-14T12:39:33.786Z,31.22
2023-12-14T12:40:33.821Z,31.23
2023-12-14T12:41:33.880Z,31.22
2023-12-14T12:42:33.932Z,31.21
2023-12-14T12:43:34.010Z,31.24
2023-12-14T12:44:34.046Z,31.21
2023-12-14T12:45:34.115Z,31.22
2023-12-14T12:46:34.167Z,31.22
2023-12-14T12:47:34.478Z,31.22
2023-12-14T12:48:34.471Z,31.20
2023-12-14T12:49:34.396Z,31.23
2023-12-14T12:50:34.450Z,31.25
2023-12-14T12:51:34.437Z,31.25
2023-12-14T12:52:34.509Z,31.26
2023-12-14T12:53:34.567Z,31.26